createdAt,value
2018-05-13T00:00:02.754Z,11.4
2018-05-13T00:15:03.171Z,11.4
2018-05-13T00:30:02.557Z,11.4
2018-05-13T00:45:02.794Z,11.4
2018-05-13T01:00:03.021Z,11.4
2018-05-13T01:15:02.346Z,11.4
2018-05-13T01:30:02.745Z,11.4
2018-05-13T01:45:03.034Z,11.4
2018-05-13T02:00:02.378Z,11.4
2018-05-13T02:15:02.585Z,11.4
2018-05-13T02:30:02.974Z,11.4
2018-05-13T02:45:02.412Z,11.4
2018-05-13T03:00:02.734Z,11.4
2018-05-13T03:15:02.976Z,11.4
2018-05-13T03:30:02.368Z,11.4
2018-05-13T03:45:02.666Z,11.4
2018-05-13T04:00:02.885Z,11.4
2018-05-13T04:15:03.122Z,11.3
2018-05-13T04:30:02.469Z,11.3
2018-05-13T04:45:02.717Z,11.3
2018-05-13T05:00:02.921Z,11.3
2018-05-13T05:15:03.253Z,11.3
2018-05-13T05:30:02.649Z,11.3
2018-05-13T05:45:02.879Z,11.3
2018-05-13T06:00:03.173Z,11.3
2018-05-13T06:15:02.497Z,11.3
2018-05-13T06:30:03.447Z,11.3
2018-05-13T06:45:02.774Z,11.4
2018-05-13T07:00:02.407Z,11.4
2018-05-13T07:15:02.764Z,11.4
2018-05-13T07:30:03.078Z,11.4
2018-05-13T07:45:02.383Z,11.4
2018-05-13T08:00:02.745Z,11.5
2018-05-13T08:15:03.028Z,11.5
2018-05-13T08:30:02.452Z,11.6
2018-05-13T08:45:02.763Z,11.6
2018-05-13T09:00:02.998Z,11.6
2018-05-13T09:15:02.326Z,11.7
2018-05-13T09:30:02.805Z,11.8
2018-05-13T09:45:03.058Z,11.8
2018-05-13T10:00:02.385Z,11.9
2018-05-13T10:15:02.690Z,11.9
2018-05-13T10:30:03.068Z,12
2018-05-13T10:45:02.413Z,12.1
2018-05-13T11:00:02.681Z,12.1
2018-05-13T11:15:02.892Z,12.2
2018-05-13T11:30:02.293Z,12.2
2018-05-13T11:45:02.577Z,12.3
2018-05-13T12:00:02.872Z,12.4
2018-05-13T12:15:03.119Z,12.4
2018-05-13T12:30:02.622Z,12.5
2018-05-13T12:45:02.872Z,12.6
2018-05-13T13:00:03.119Z,12.6
2018-05-13T13:15:02.443Z,12.6
2018-05-13T13:30:02.817Z,12.7
2018-05-13T13:45:03.081Z,12.8
2018-05-13T14:00:02.352Z,12.8
2018-05-13T14:15:02.627Z,12.8
2018-05-13T14:30:02.958Z,12.8
2018-05-13T14:45:02.280Z,12.8
2018-05-13T15:00:02.569Z,12.9
2018-05-13T15:15:02.887Z,12.9
2018-05-13T15:30:02.183Z,12.9
2018-05-13T15:45:02.527Z,12.9
2018-05-13T16:00:02.825Z,12.9
2018-05-13T16:15:03.069Z,12.9
2018-05-13T16:30:02.597Z,12.8
2018-05-13T16:45:02.860Z,12.8
2018-05-13T17:00:03.108Z,12.8
2018-05-13T17:15:02.375Z,12.7
2018-05-13T17:30:02.698Z,12.6
2018-05-13T17:45:02.891Z,12.6
2018-05-13T18:00:03.315Z,12.6
2018-05-13T18:15:02.616Z,12.5
2018-05-13T18:30:02.894Z,12.4
2018-05-13T18:45:03.223Z,12.4
2018-05-13T19:00:02.557Z,12.4
2018-05-13T19:15:02.854Z,12.3
2018-05-13T19:30:02.362Z,12.2
2018-05-13T19:45:02.651Z,12.2
2018-05-13T20:00:02.875Z,12.2
2018-05-13T20:15:03.106Z,12.1
2018-05-13T20:30:02.451Z,12.1
2018-05-13T20:45:02.709Z,12.1
2018-05-13T21:00:02.916Z,12.1
2018-05-13T21:15:03.136Z,12
2018-05-13T21:30:02.439Z,12
2018-05-13T21:45:02.659Z,11.9
2018-05-13T22:00:02.922Z,11.9
2018-05-13T22:15:03.198Z,11.9
2018-05-13T22:30:02.926Z,11.9
2018-05-13T22:45:02.369Z,11.9
2018-05-13T23:00:03.106Z,11.8
2018-05-13T23:15:02.437Z,11.8
2018-05-13T23:30:02.901Z,11.8
2018-05-13T23:45:03.152Z,11.8
